createdAt,value
2018-12-04T00:00:40.842Z,100117.66
2018-12-04T00:05:52.063Z,100142.64
2018-12-04T00:11:04.097Z,100171.49
2018-12-04T00:16:15.270Z,100190.84
2018-12-04T00:21:29.134Z,100211.80
2018-12-04T00:26:39.779Z,100235.82
2018-12-04T00:31:51.634Z,100249.35
2018-12-04T00:37:02.285Z,100263.45
2018-12-04T00:42:13.728Z,100278.30
2018-12-04T00:47:24.882Z,100298.13
2018-12-04T00:52:36.824Z,100308.92
2018-12-04T00:57:49.186Z,100326.23
2018-12-04T01:03:01.239Z,100343.70
2018-12-04T01:08:13.422Z,100361.58
2018-12-04T01:13:24.269Z,100365.22
2018-12-04T01:18:37.008Z,100374.79
2018-12-04T01:23:50.850Z,100384.72
2018-12-04T01:29:03.082Z,100403.92
2018-12-04T01:34:15.503Z,100408.25
2018-12-04T01:39:27.762Z,100426.20
2018-12-04T01:44:38.593Z,100435.31
2018-12-04T01:49:50.854Z,100443.53
2018-12-04T01:55:01.378Z,100462.11
2018-12-04T02:00:13.773Z,100477.02
2018-12-04T02:05:24.664Z,100489.61
2018-12-04T02:10:37.684Z,100498.73
2018-12-04T02:15:48.872Z,100504.02
2018-12-04T02:21:00.961Z,100530.38
2018-12-04T02:26:11.281Z,100535.61
2018-12-04T02:31:26.046Z,100539.94
2018-12-04T02:36:36.478Z,100544.64
2018-12-04T02:41:50.657Z,100546.41
2018-12-04T02:47:01.213Z,100550.39
2018-12-04T02:52:15.336Z,100558.94
2018-12-04T02:57:27.882Z,100576.22
2018-12-04T03:02:40.815Z,100585.29
2018-12-04T03:07:51.680Z,100596.56
2018-12-04T03:13:03.378Z,100603.81
2018-12-04T03:18:14.827Z,100615.18
2018-12-04T03:23:25.528Z,100620.37
2018-12-04T03:28:37.363Z,100634.24
2018-12-04T03:33:48.174Z,100641.44
2018-12-04T03:39:01.759Z,100645.46
2018-12-04T03:44:14.896Z,100654.88
2018-12-04T03:49:26.903Z,100665.29
2018-12-04T03:54:38.017Z,100664.52
2018-12-04T03:59:51.586Z,100680.97
2018-12-04T04:05:02.853Z,100691.34
2018-12-04T04:10:14.408Z,100695.70
2018-12-04T04:15:25.143Z,100699.63
2018-12-04T04:20:36.726Z,100714.13
2018-12-04T04:25:47.840Z,100729.86
2018-12-04T04:30:59.739Z,100733.70
2018-12-04T04:36:11.057Z,100755.73
2018-12-04T04:41:22.481Z,100777.80
2018-12-04T04:46:33.738Z,100773.02
2018-12-04T04:51:47.840Z,100781.22
2018-12-04T04:56:58.945Z,100787.47
2018-12-04T05:02:07.609Z,100800.66
2018-12-04T05:07:18.413Z,100805.44
2018-12-04T05:12:32.476Z,100819.69
2018-12-04T05:17:43.201Z,100836.02
2018-12-04T05:22:51.502Z,100835.15
2018-12-04T05:28:02.090Z,100845.52
2018-12-04T05:33:15.942Z,100850.73
2018-12-04T05:38:28.090Z,100872.24
2018-12-04T05:43:37.473Z,100881.63
2018-12-04T05:48:49.704Z,100888.65
2018-12-04T05:54:00.589Z,100895.98
2018-12-04T05:56:30.000Z,100895.16
2018-12-04T05:58:59.857Z,100895.56
2018-12-04T06:04:10.696Z,100915.02
2018-12-04T06:09:23.213Z,100929.33
2018-12-04T06:14:34.190Z,100943.58
2018-12-04T06:19:46.561Z,100945.70
2018-12-04T06:24:57.480Z,100971.67
2018-12-04T06:30:11.051Z,100983.42
2018-12-04T06:35:22.500Z,100997.34
2018-12-04T06:40:34.455Z,101015.02
2018-12-04T06:45:45.452Z,101021.09
2018-12-04T06:50:56.946Z,101032.27
2018-12-04T06:56:07.421Z,101047.87
2018-12-04T07:01:18.963Z,101057.84
2018-12-04T07:06:29.841Z,101070.86
2018-12-04T07:11:41.943Z,101073.96
2018-12-04T07:16:52.839Z,101090.38
2018-12-04T07:19:22.241Z,101099.05
2018-12-04T07:24:33.365Z,101111.95
2018-12-04T07:29:46.923Z,101116.67
2018-12-04T07:34:57.595Z,101130.41
2018-12-04T07:40:09.255Z,101136.05
2018-12-04T07:45:21.957Z,101153.30
2018-12-04T07:50:34.376Z,101166.63
2018-12-04T07:55:46.094Z,101183.90
2018-12-04T08:00:59.011Z,101198.93
2018-12-04T08:06:11.449Z,101204.57
2018-12-04T08:11:24.141Z,101216.63
2018-12-04T08:16:35.901Z,101232.55
2018-12-04T08:21:55.261Z,101246.83
2018-12-04T08:27:09.828Z,101250.22
2018-12-04T08:32:23.902Z,101264.34
2018-12-04T08:37:35.273Z,101272.02
2018-12-04T08:42:50.189Z,101284.00
2018-12-04T08:48:05.395Z,101287.45
2018-12-04T08:53:17.433Z,101300.77
2018-12-04T08:58:32.005Z,101317.79
2018-12-04T09:03:43.033Z,101327.84
2018-12-04T09:09:09.274Z,101339.88
2018-12-04T09:14:21.608Z,101342.78
2018-12-04T09:19:35.713Z,101353.84
2018-12-04T09:24:48.933Z,101366.56
2018-12-04T09:30:01.298Z,101380.23
2018-12-04T09:35:12.514Z,101393.72
2018-12-04T09:40:24.775Z,101398.30
2018-12-04T09:45:39.007Z,101401.02
2018-12-04T09:50:53.163Z,101408.49
2018-12-04T09:56:06.038Z,101422.23
2018-12-04T10:01:19.344Z,101431.28
2018-12-04T10:06:30.221Z,101437.56
2018-12-04T10:11:42.156Z,101432.50
2018-12-04T10:16:53.695Z,101441.08
2018-12-04T10:22:06.406Z,101450.44
2018-12-04T10:27:17.377Z,101447.59
2018-12-04T10:32:29.313Z,101445.55
2018-12-04T10:37:36.840Z,101458.00
2018-12-04T10:42:50.847Z,101466.80
2018-12-04T10:48:03.758Z,101467.55
2018-12-04T10:53:15.807Z,101461.13
2018-12-04T10:58:27.824Z,101477.78
2018-12-04T11:03:46.719Z,101481.23
2018-12-04T11:08:58.554Z,101491.53
2018-12-04T11:14:09.553Z,101495.44
2018-12-04T11:19:21.659Z,101503.12
2018-12-04T11:24:32.474Z,101509.33
2018-12-04T11:29:47.067Z,101516.36
2018-12-04T11:34:59.641Z,101523.16
2018-12-04T11:40:18.648Z,101527.45
2018-12-04T11:45:29.899Z,101535.57
2018-12-04T11:50:42.165Z,101538.22
2018-12-04T11:55:53.147Z,101541.27
2018-12-04T11:58:22.753Z,101544.22
2018-12-04T12:03:33.826Z,101547.30
2018-12-04T12:06:03.154Z,101539.37
2018-12-04T12:11:15.087Z,101541.95
2018-12-04T12:16:26.184Z,101545.47
2018-12-04T12:21:37.072Z,101556.03
2018-12-04T12:26:50.211Z,101562.69
2018-12-04T12:29:19.623Z,101566.91
2018-12-04T12:34:30.587Z,101572.23
2018-12-04T12:39:42.634Z,101576.03
2018-12-04T12:44:53.626Z,101582.91
2018-12-04T12:50:08.173Z,101593.42
2018-12-04T12:55:19.193Z,101595.72
2018-12-04T13:00:31.214Z,101596.86
2018-12-04T13:05:42.280Z,101611.70
2018-12-04T13:10:54.160Z,101613.68
2018-12-04T13:16:05.527Z,101620.86
2018-12-04T13:21:17.542Z,101630.09
2018-12-04T13:26:28.581Z,101627.95
2018-12-04T13:31:40.541Z,101635.02
2018-12-04T13:36:52.289Z,101642.30
2018-12-04T13:39:21.684Z,101649.97
2018-12-04T13:44:32.667Z,101659.72
2018-12-04T13:49:44.781Z,101667.17
2018-12-04T13:54:55.890Z,101682.50
2018-12-04T14:00:08.949Z,101688.73
2018-12-04T14:05:20.892Z,101694.17
2018-12-04T14:10:33.081Z,101699.27
2018-12-04T14:15:47.569Z,101706.87
2018-12-04T14:21:00.571Z,101712.11
2018-12-04T14:26:12.909Z,101721.69
2018-12-04T14:31:25.029Z,101721.94
2018-12-04T14:36:36.020Z,101728.25
2018-12-04T14:41:54.556Z,101724.09
2018-12-04T14:47:05.401Z,101730.31
2018-12-04T14:49:34.858Z,101736.86
2018-12-04T14:54:48.879Z,101748.16
2018-12-04T15:00:01.103Z,101747.79
2018-12-04T15:05:13.987Z,101752.17
2018-12-04T15:10:26.058Z,101748.28
2018-12-04T15:15:38.990Z,101766.47
2018-12-04T15:20:51.792Z,101777.70
2018-12-04T15:26:03.342Z,101787.21
2018-12-04T15:31:15.610Z,101797.12
2018-12-04T15:36:28.482Z,101804.88
2018-12-04T15:41:40.499Z,101817.80
2018-12-04T15:46:51.462Z,101828.98
2018-12-04T15:52:03.541Z,101835.86
2018-12-04T15:57:14.471Z,101837.56
2018-12-04T16:02:26.707Z,101843.52
2018-12-04T16:07:37.570Z,101853.85
2018-12-04T16:12:54.493Z,101866.32
2018-12-04T16:18:06.445Z,101859.81
2018-12-04T16:23:22.955Z,101869.23
2018-12-04T16:28:45.951Z,101867.48
2018-12-04T16:34:00.679Z,101874.31
2018-12-04T16:39:19.983Z,101876.88
2018-12-04T16:44:31.346Z,101875.19
2018-12-04T16:49:43.365Z,101873.05
2018-12-04T16:54:57.278Z,101869.59
2018-12-04T17:00:12.390Z,101862.73
2018-12-04T17:05:21.951Z,101876.96
2018-12-04T17:10:34.231Z,101871.37
2018-12-04T17:15:48.854Z,101879.97
2018-12-04T17:20:57.178Z,101881.67
2018-12-04T17:26:08.905Z,101888.53
2018-12-04T17:31:28.575Z,101885.17
2018-12-04T17:36:44.003Z,101897.16
2018-12-04T17:42:11.658Z,101907.56
2018-12-04T17:47:37.050Z,101903.23
2018-12-04T17:52:58.837Z,101915.31
2018-12-04T17:58:27.912Z,101920.91
2018-12-04T18:03:39.836Z,101916.58
2018-12-04T18:08:58.394Z,101926.89
2018-12-04T18:14:08.182Z,101929.41
2018-12-04T18:19:23.213Z,101929.79
2018-12-04T18:24:36.948Z,101929.37
2018-12-04T18:29:52.178Z,101930.13
2018-12-04T18:35:05.994Z,101936.17
2018-12-04T18:40:20.485Z,101933.17
2018-12-04T18:45:37.756Z,101945.33
2018-12-04T18:50:50.530Z,101953.88
2018-12-04T18:56:02.167Z,101955.55
2018-12-04T19:01:14.548Z,101949.06
2018-12-04T19:06:25.577Z,101954.27
2018-12-04T19:08:55.109Z,101959.02
2018-12-04T19:14:07.799Z,101969.34
2018-12-04T19:19:19.841Z,101973.64
2018-12-04T19:24:34.404Z,101971.89
2018-12-04T19:29:46.483Z,101973.22
2018-12-04T19:34:58.688Z,101979.19
2018-12-04T19:40:13.112Z,101980.44
2018-12-04T19:45:27.090Z,101984.18
2018-12-04T20:15:16.794Z,102024.14
2018-12-04T20:20:32.253Z,102020.63
2018-12-04T20:25:46.445Z,102028.98
2018-12-04T20:28:15.944Z,102032.38
2018-12-04T20:33:27.090Z,102049.16
2018-12-04T20:38:39.747Z,102049.97
2018-12-04T20:43:50.757Z,102058.05
2018-12-04T20:49:05.497Z,102060.59
2018-12-04T20:54:16.724Z,102065.21
2018-12-04T20:59:25.648Z,102073.81
2018-12-04T21:04:40.727Z,102073.14
2018-12-04T21:09:53.060Z,102078.21
2018-12-04T21:15:04.417Z,102074.67
2018-12-04T21:20:16.889Z,102078.08
2018-12-04T21:25:28.057Z,102077.60
2018-12-04T21:30:59.428Z,102073.63
2018-12-04T21:36:43.321Z,102069.39
2018-12-04T21:42:11.742Z,102064.63
2018-12-04T21:47:40.457Z,102067.14
2018-12-04T21:52:52.779Z,102076.56
2018-12-04T21:58:04.754Z,102082.61
2018-12-04T22:03:17.199Z,102072.76
2018-12-04T22:08:31.192Z,102082.20
2018-12-04T22:13:42.199Z,102082.73
2018-12-04T22:18:50.856Z,102073.97
2018-12-04T22:24:02.944Z,102077.77
2018-12-04T22:29:15.014Z,102080.67
2018-12-04T22:34:26.119Z,102073.41
2018-12-04T22:39:34.974Z,102074.69
2018-12-04T22:44:46.203Z,102076.34
2018-12-04T22:50:03.795Z,102072.46
2018-12-04T22:55:17.288Z,102082.05
2018-12-04T23:00:40.114Z,102079.32
2018-12-04T23:05:48.187Z,102080.52
2018-12-04T23:11:00.368Z,102074.90
2018-12-04T23:16:12.144Z,102077.84
2018-12-04T23:21:24.208Z,102081.31
2018-12-04T23:26:35.098Z,102079.95
2018-12-04T23:31:47.221Z,102081.26
2018-12-04T23:36:58.135Z,102078.40
2018-12-04T23:42:12.027Z,102071.00
2018-12-04T23:47:23.143Z,102067.56
2018-12-04T23:52:35.689Z,102066.75
2018-12-04T23:57:48.083Z,102051.28
